Time,TemperatureF,DewpointF,PressureIn,WindDirection,WindDirectionDegrees,WindSpeedMPH,WindSpeedGustMPH,Humidity,HourlyPrecipIn,Conditions,Clouds,dailyrainin,SoftwareType,DateUTC
2013-08-01 00:06:00,70.2,67.0,30.02,NE,53,0.0,0.0,89,0.00,,,0.00,weatherlink.com 1.10,2013-08-01 05:06:00,
2013-08-01 00:21:00,69.8,67.0,30.01,NE,52,0.0,0.0,91,0.00,,,0.00,weatherlink.com 1.10,2013-08-01 05:21:00,
2013-08-01 00:36:00,69.6,67.0,30.01,NE,53,0.0,0.0,91,0.00,,,0.00,weatherlink.com 1.10,2013-08-01 05:36:00,
2013-08-01 00:51:00,69.7,67.0,30.00,NE,52,0.0,0.0,91,0.00,,,0.00,weatherlink.com 1.10,2013-08-01 05:51:00,
2013-08-01 01:06:00,69.6,67.0,30.01,NE,53,0.0,0.0,91,0.00,,,0.00,weatherlink.com 1.10,2013-08-01 06:06:00,
2013-08-01 01:22:00,69.2,67.0,30.00,NE,53,0.0,0.0,91,0.00,,,0.00,weatherlink.com 1.10,2013-08-01 06:22:00,
2013-08-01 01:37:00,68.9,67.0,30.00,NE,52,0.0,0.0,92,0.00,,,0.00,weatherlink.com 1.10,2013-08-01 06:37:00,
2013-08-01 01:52:00,68.4,66.0,30.01,NE,53,0.0,0.0,92,0.00,,,0.00,weatherlink.com 1.10,2013-08-01 06:52:00,
2013-08-01 02:07:00,68.2,66.0,30.01,NE,52,0.0,0.0,93,0.00,,,0.00,weatherlink.com 1.10,2013-08-01 07:07:00,
2013-08-01 02:22:00,68.1,66.0,30.02,NE,52,0.0,0.0,94,0.00,,,0.00,weatherlink.com 1.10,2013-08-01 07:22:00,
2013-08-01 02:37:00,67.8,66.0,30.02,NE,53,0.0,0.0,94,0.00,,,0.00,weatherlink.com 1.10,2013-08-01 07:37:00,
2013-08-01 02:52:00,67.9,66.0,30.02,NE,52,0.0,0.0,94,0.00,,,0.00,weatherlink.com 1.10,2013-08-01 07:52:00,
2013-08-01 03:07:00,68.1,66.0,30.02,NE,52,0.0,0.0,94,0.00,,,0.00,weatherlink.com 1.10,2013-08-01 08:07:00,
2013-08-01 03:22:00,68.0,66.0,30.02,NE,56,0.0,0.0,93,0.00,,,0.00,weatherlink.com 1.10,2013-08-01 08:22:00,
2013-08-01 03:37:00,67.8,66.0,30.02,ENE,67,0.0,0.0,93,0.00,,,0.00,weatherlink.com 1.10,2013-08-01 08:37:00,
2013-08-01 04:22:00,67.2,66.0,30.02,South,184,0.0,0.0,94,0.00,,,0.00,weatherlink.com 1.10,2013-08-01 09:22:00,
2013-08-01 04:37:00,66.7,65.0,30.02,South,184,0.0,0.0,94,0.00,,,0.00,weatherlink.com 1.10,2013-08-01 09:37:00,
2013-08-01 04:52:00,66.5,65.0,30.02,South,183,0.0,0.0,95,0.00,,,0.00,weatherlink.com 1.10,2013-08-01 09:52:00,
2013-08-01 05:07:00,66.3,65.0,30.02,South,184,0.0,0.0,96,0.00,,,0.00,weatherlink.com 1.10,2013-08-01 10:07:00,
2013-08-01 05:37:00,66.4,66.0,30.02,SW,232,0.0,0.0,97,0.00,,,0.00,weatherlink.com 1.10,2013-08-01 10:37:00,
2013-08-01 05:52:00,66.0,65.0,30.02,SW,232,0.0,0.0,96,0.00,,,0.00,weatherlink.com 1.10,2013-08-01 10:52:00,
2013-08-01 06:07:00,65.6,65.0,30.03,SW,232,0.0,0.0,97,0.00,,,0.00,weatherlink.com 1.10,2013-08-01 11:07:00,
2013-08-01 06:22:00,65.6,65.0,30.03,SW,232,0.0,0.0,97,0.00,,,0.00,weatherlink.com 1.10,2013-08-01 11:22:00,
2013-08-01 06:37:00,66.0,66.0,30.03,SW,232,0.0,0.0,98,0.00,,,0.00,weatherlink.com 1.10,2013-08-01 11:37:00,
2013-08-01 07:07:00,66.9,66.0,30.03,SSW,212,0.0,0.0,97,0.00,,,0.00,weatherlink.com 1.10,2013-08-01 12:07:00,
2013-08-01 07:22:00,67.4,66.0,30.04,WSW,255,0.0,1.0,96,0.00,,,0.00,weatherlink.com 1.10,2013-08-01 12:22:00,
2013-08-01 07:37:00,68.3,67.0,30.04,West,260,0.0,0.0,95,0.00,,,0.00,weatherlink.com 1.10,2013-08-01 12:37:00,
2013-08-01 07:52:00,69.3,67.0,30.03,SSE,158,0.0,0.0,93,0.00,,,0.00,weatherlink.com 1.10,2013-08-01 12:52:00,
2013-08-01 08:22:00,72.8,68.0,30.04,SSE,163,0.0,2.0,86,0.00,,,0.00,weatherlink.com 1.10,2013-08-01 13:22:00,
2013-08-01 08:52:00,75.2,69.0,30.04,South,174,0.0,1.0,82,0.00,,,0.00,weatherlink.com 1.10,2013-08-01 13:52:00,
2013-08-01 09:07:00,77.3,70.0,30.04,SSE,156,0.0,0.0,78,0.00,,,0.00,weatherlink.com 1.10,2013-08-01 14:07:00,
2013-08-01 09:22:00,78.5,70.0,30.03,WSW,249,0.0,2.0,75,0.00,,,0.00,weatherlink.com 1.10,2013-08-01 14:22:00,
2013-08-01 09:52:00,78.5,70.0,30.04,West,280,0.0,1.0,75,0.00,,,0.00,weatherlink.com 1.10,2013-08-01 14:52:00,
2013-08-01 10:07:00,79.3,70.0,30.04,SE,138,0.0,1.0,72,0.00,,,0.00,weatherlink.com 1.10,2013-08-01 15:07:00,
2013-08-01 11:08:00,81.4,68.0,30.03,South,170,1.0,2.0,63,0.00,,,0.00,weatherlink.com 1.10,2013-08-01 16:08:00,
2013-08-01 11:23:00,81.6,69.0,30.03,ESE,115,0.0,2.0,66,0.00,,,0.00,weatherlink.com 1.10,2013-08-01 16:23:00,
2013-08-01 11:38:00,81.0,68.0,30.03,WNW,285,1.0,3.0,65,0.00,,,0.00,weatherlink.com 1.10,2013-08-01 16:38:00,
2013-08-01 11:53:00,82.0,69.0,30.03,SSE,160,2.0,3.0,64,0.00,,,0.00,weatherlink.com 1.10,2013-08-01 16:53:00,
2013-08-01 12:08:00,82.9,68.0,30.02,East,86,2.0,4.0,62,0.00,,,0.00,weatherlink.com 1.10,2013-08-01 17:08:00,
2013-08-01 12:23:00,84.0,69.0,30.02,SW,214,1.0,3.0,61,0.00,,,0.00,weatherlink.com 1.10,2013-08-01 17:23:00,
2013-08-01 12:53:00,85.3,70.0,30.01,West,276,2.0,4.0,61,0.00,,,0.00,weatherlink.com 1.10,2013-08-01 17:53:00,
2013-08-01 13:23:00,86.1,70.0,30.01,WSW,252,0.0,3.0,58,0.00,,,0.00,weatherlink.com 1.10,2013-08-01 18:23:00,
2013-08-01 13:53:00,86.9,68.0,30.00,East,101,0.0,2.0,54,0.00,,,0.00,weatherlink.com 1.10,2013-08-01 18:53:00,
2013-08-01 14:23:00,86.6,69.0,29.99,WNW,283,0.0,2.0,55,0.00,,,0.00,weatherlink.com 1.10,2013-08-01 19:23:00,
2013-08-01 14:38:00,86.6,66.0,29.98,East,93,1.0,2.0,50,0.00,,,0.00,weatherlink.com 1.10,2013-08-01 19:38:00,
2013-08-01 14:53:00,86.1,69.0,29.98,ENE,70,1.0,2.0,56,0.00,,,0.00,weatherlink.com 1.10,2013-08-01 19:53:00,
2013-08-01 15:23:00,86.3,68.0,29.97,SSE,166,1.0,2.0,54,0.00,,,0.00,weatherlink.com 1.10,2013-08-01 20:23:00,
2013-08-01 15:53:00,86.9,69.0,29.95,SW,232,2.0,6.0,56,0.00,,,0.00,weatherlink.com 1.10,2013-08-01 20:53:00,
2013-08-01 16:08:00,88.6,69.0,29.94,SSW,204,1.0,4.0,52,0.00,,,0.00,weatherlink.com 1.10,2013-08-01 21:08:00,
2013-08-01 16:23:00,89.8,68.0,29.94,SE,136,2.0,2.0,49,0.00,,,0.00,weatherlink.com 1.10,2013-08-01 21:23:00,
2013-08-01 16:38:00,89.4,68.0,29.93,WSW,257,2.0,4.0,49,0.00,,,0.00,weatherlink.com 1.10,2013-08-01 21:38:00,
2013-08-01 16:53:00,89.4,69.0,29.93,SSE,158,1.0,3.0,52,0.00,,,0.00,weatherlink.com 1.10,2013-08-01 21:53:00,
2013-08-01 17:08:00,88.9,68.0,29.93,SSW,195,2.0,3.0,50,0.00,,,0.00,weatherlink.com 1.10,2013-08-01 22:08:00,
2013-08-01 17:23:00,88.1,67.0,29.93,SE,139,1.0,2.0,49,0.00,,,0.00,weatherlink.com 1.10,2013-08-01 22:23:00,
2013-08-01 17:38:00,87.0,66.0,29.92,SSW,212,1.0,3.0,50,0.00,,,0.00,weatherlink.com 1.10,2013-08-01 22:38:00,
2013-08-01 18:24:00,85.9,65.0,29.91,SSE,167,0.0,2.0,50,0.00,,,0.00,weatherlink.com 1.10,2013-08-01 23:24:00,
2013-08-01 18:39:00,85.6,66.0,29.90,WNW,283,2.0,2.0,52,0.00,,,0.00,weatherlink.com 1.10,2013-08-01 23:39:00,
2013-08-01 18:54:00,85.6,65.0,29.90,SSE,158,0.0,2.0,51,0.00,,,0.00,weatherlink.com 1.10,2013-08-01 23:54:00,
2013-08-01 19:09:00,85.2,66.0,29.89,SSW,200,0.0,3.0,52,0.00,,,0.00,weatherlink.com 1.10,2013-08-02 00:09:00,
2013-08-01 19:24:00,84.4,66.0,29.90,SSE,166,0.0,1.0,54,0.00,,,0.00,weatherlink.com 1.10,2013-08-02 00:24:00,
2013-08-01 19:39:00,84.1,66.0,29.89,SSE,151,0.0,2.0,55,0.00,,,0.00,weatherlink.com 1.10,2013-08-02 00:39:00,
2013-08-01 19:54:00,83.1,66.0,29.89,WNW,295,0.0,2.0,57,0.00,,,0.00,weatherlink.com 1.10,2013-08-02 00:54:00,
2013-08-01 20:09:00,82.5,67.0,29.89,SW,236,0.0,1.0,59,0.00,,,0.00,weatherlink.com 1.10,2013-08-02 01:09:00,
2013-08-01 20:24:00,82.0,67.0,29.89,South,178,0.0,2.0,61,0.00,,,0.00,weatherlink.com 1.10,2013-08-02 01:24:00,
2013-08-01 20:54:00,80.8,68.0,29.89,South,186,1.0,2.0,66,0.00,,,0.00,weatherlink.com 1.10,2013-08-02 01:54:00,
2013-08-01 21:24:00,79.7,68.0,29.89,SE,138,1.0,2.0,68,0.00,,,0.00,weatherlink.com 1.10,2013-08-02 02:24:00,
2013-08-01 21:39:00,79.1,69.0,29.89,South,180,0.0,1.0,70,0.00,,,0.00,weatherlink.com 1.10,2013-08-02 02:39:00,
2013-08-01 21:54:00,78.8,68.0,29.89,South,172,0.0,2.0,70,0.00,,,0.00,weatherlink.com 1.10,2013-08-02 02:54:00,
2013-08-01 22:09:00,78.3,68.0,29.90,SSE,148,0.0,1.0,71,0.00,,,0.00,weatherlink.com 1.10,2013-08-02 03:09:00,
2013-08-01 22:24:00,78.1,68.0,29.90,SE,132,0.0,1.0,72,0.00,,,0.00,weatherlink.com 1.10,2013-08-02 03:24:00,
2013-08-01 22:39:00,77.7,68.0,29.90,SSE,160,0.0,1.0,73,0.00,,,0.00,weatherlink.com 1.10,2013-08-02 03:39:00,
2013-08-01 22:54:00,77.3,68.0,29.90,SSE,162,0.0,2.0,74,0.00,,,0.00,weatherlink.com 1.10,2013-08-02 03:54:00,
2013-08-01 23:09:00,77.2,68.0,29.89,SSE,148,0.0,1.0,74,0.00,,,0.00,weatherlink.com 1.10,2013-08-02 04:09:00,
2013-08-01 23:24:00,77.1,69.0,29.89,SE,128,0.0,1.0,75,0.00,,,0.00,weatherlink.com 1.10,2013-08-02 04:24:00,
2013-08-01 23:39:00,77.1,69.0,29.90,ESE,121,0.0,2.0,75,0.00,,,0.00,weatherlink.com 1.10,2013-08-02 04:39:00,
2013-08-01 23:54:00,77.1,69.0,29.90,ESE,105,0.0,1.0,75,0.00,,,0.00,weatherlink.com 1.10,2013-08-02 04:54:00,